createdAt,value
2022-10-02T00:01:32.608Z,2.40
2022-10-02T00:04:01.277Z,2.13
2022-10-02T00:06:36.793Z,2.13
2022-10-02T00:09:04.394Z,2.40
2022-10-02T00:11:51.554Z,2.50
2022-10-02T00:14:22.858Z,2.22
2022-10-02T00:16:54.036Z,2.20
2022-10-02T00:19:20.468Z,2.45
2022-10-02T00:22:11.232Z,2.25
2022-10-02T00:24:43.826Z,2.30
2022-10-02T00:27:15.542Z,2.47
2022-10-02T00:29:51.519Z,2.45
2022-10-02T00:35:31.092Z,2.10
2022-10-02T00:38:09.363Z,2.55
2022-10-02T00:40:54.407Z,2.70
2022-10-02T00:43:31.350Z,2.42
2022-10-02T00:46:06.980Z,2.65
2022-10-02T00:49:01.036Z,2.30
2022-10-02T00:52:22.565Z,2.85
2022-10-02T00:55:16.815Z,3.10
2022-10-02T00:58:08.083Z,3.20
2022-10-02T01:00:34.670Z,2.25
2022-10-02T01:03:19.833Z,3.35
2022-10-02T01:05:46.309Z,3.40
2022-10-02T01:08:12.933Z,3.17
2022-10-02T01:10:39.777Z,3.20
2022-10-02T01:13:07.176Z,3.22
2022-10-02T01:15:40.394Z,2.90
2022-10-02T01:18:07.475Z,3.25
2022-10-02T01:20:38.089Z,3.53
2022-10-02T01:23:27.690Z,3.85
2022-10-02T01:25:54.153Z,3.17
2022-10-02T01:28:22.221Z,3.35
2022-10-02T01:30:51.583Z,2.88
2022-10-02T01:33:18.617Z,2.83
2022-10-02T01:35:45.863Z,2.70
2022-10-02T01:38:18.369Z,2.97
2022-10-02T01:40:45.008Z,3.03
2022-10-02T01:43:21.267Z,2.90
2022-10-02T01:46:12.458Z,3.65
2022-10-02T01:48:43.330Z,2.90
2022-10-02T01:51:22.915Z,2.95
2022-10-02T01:53:58.430Z,2.92
2022-10-02T01:56:55.403Z,2.95
2022-10-02T02:00:12.642Z,2.88
2022-10-02T02:02:51.272Z,3.05
2022-10-02T02:05:48.250Z,3.38
2022-10-02T02:08:31.445Z,2.95
2022-10-02T02:11:12.727Z,3.05
2022-10-02T02:14:27.196Z,3.45
2022-10-02T02:17:00.369Z,3.38
2022-10-02T02:19:53.035Z,3.70
2022-10-02T02:22:24.384Z,3.13
2022-10-02T02:25:02.345Z,3.15
2022-10-02T02:27:35.633Z,3.53
2022-10-02T02:30:06.634Z,3.78
2022-10-02T02:32:37.536Z,3.38
2022-10-02T02:35:17.214Z,3.40
2022-10-02T02:37:46.642Z,3.75
2022-10-02T02:40:24.462Z,3.30
2022-10-02T02:43:03.409Z,3.35
2022-10-02T02:45:37.734Z,3.50
2022-10-02T02:48:28.640Z,3.28
2022-10-02T02:51:00.234Z,3.58
2022-10-02T02:53:37.684Z,3.50
2022-10-02T02:56:08.070Z,4.15
2022-10-02T02:58:40.583Z,4.40
2022-10-02T03:01:07.420Z,3.40
2022-10-02T03:03:33.839Z,3.50
2022-10-02T03:06:22.096Z,3.90
2022-10-02T03:08:51.590Z,4.00
2022-10-02T03:11:36.090Z,3.58
2022-10-02T03:14:31.162Z,3.40
2022-10-02T03:17:22.002Z,3.95
2022-10-02T03:20:03.400Z,3.63
2022-10-02T03:23:02.907Z,3.78
2022-10-02T03:25:44.022Z,3.80
2022-10-02T03:28:37.294Z,3.78
2022-10-02T03:31:05.976Z,4.35
2022-10-02T03:33:36.937Z,4.20
2022-10-02T03:36:04.673Z,4.03
2022-10-02T03:38:32.942Z,3.63
2022-10-02T03:40:59.550Z,3.40
2022-10-02T03:43:29.348Z,3.28
2022-10-02T03:45:56.968Z,3.55
2022-10-02T03:48:23.739Z,3.42
2022-10-02T03:50:53.120Z,4.43
2022-10-02T03:53:22.651Z,3.45
2022-10-02T03:56:07.995Z,4.28
2022-10-02T03:58:37.412Z,3.45
2022-10-02T04:01:28.399Z,3.63
2022-10-02T04:04:01.874Z,3.75
2022-10-02T04:06:57.010Z,3.60
2022-10-02T04:09:30.586Z,3.88
2022-10-02T04:12:08.758Z,3.85
2022-10-02T04:14:39.260Z,2.88
2022-10-02T04:17:19.899Z,3.95
2022-10-02T04:19:54.638Z,3.45
2022-10-02T04:23:03.128Z,3.50
2022-10-02T04:25:35.261Z,3.30
2022-10-02T04:28:06.234Z,3.67
2022-10-02T04:30:32.777Z,3.63
2022-10-02T04:33:10.927Z,3.13
2022-10-02T04:36:11.179Z,3.78
2022-10-02T04:38:59.439Z,3.47
2022-10-02T04:41:50.177Z,4.03
2022-10-02T04:44:40.399Z,2.97
2022-10-02T04:47:24.939Z,3.22
2022-10-02T04:50:29.206Z,4.38
2022-10-02T04:53:03.694Z,3.45
2022-10-02T04:55:54.823Z,3.50
2022-10-02T04:58:46.931Z,3.40
2022-10-02T05:01:39.763Z,3.40
2022-10-02T05:04:47.850Z,3.42
2022-10-02T05:07:34.759Z,3.25
2022-10-02T05:10:27.382Z,3.47
2022-10-02T05:13:08.703Z,3.67
2022-10-02T05:16:08.494Z,3.70
2022-10-02T05:18:44.044Z,3.50
2022-10-02T05:21:36.507Z,2.85
2022-10-02T05:24:10.970Z,3.30
2022-10-02T05:26:41.446Z,3.13
2022-10-02T05:29:28.529Z,3.50
2022-10-02T05:32:24.117Z,3.17
2022-10-02T05:35:28.626Z,2.95
2022-10-02T05:38:06.699Z,3.10
2022-10-02T05:40:52.891Z,3.00
2022-10-02T05:43:41.071Z,3.75
2022-10-02T05:46:16.188Z,3.72
2022-10-02T05:48:52.843Z,3.58
2022-10-02T05:51:55.535Z,3.50
2022-10-02T05:54:21.890Z,3.97
2022-10-02T05:57:13.383Z,3.95
2022-10-02T06:00:01.153Z,4.30
2022-10-02T06:02:39.477Z,4.80
2022-10-02T06:05:18.346Z,5.32
2022-10-02T06:07:48.672Z,5.30
2022-10-02T06:10:19.801Z,5.70
2022-10-02T06:12:55.016Z,5.63
2022-10-02T06:15:28.158Z,5.00
2022-10-02T06:17:59.903Z,6.97
2022-10-02T06:20:53.855Z,6.80
2022-10-02T06:23:40.873Z,7.47
2022-10-02T06:27:05.902Z,6.93
2022-10-02T06:29:42.293Z,7.53
2022-10-02T06:32:22.367Z,8.93
2022-10-02T06:34:50.260Z,9.88
2022-10-02T06:37:19.649Z,12.10
2022-10-02T06:40:04.169Z,10.55
2022-10-02T06:42:39.221Z,10.55
2022-10-02T06:45:18.057Z,8.33
2022-10-02T06:48:05.750Z,6.72
2022-10-02T06:50:50.750Z,7.50
2022-10-02T06:53:25.442Z,7.20
2022-10-02T06:56:07.911Z,8.52
2022-10-02T06:58:59.404Z,7.28
2022-10-02T07:01:32.059Z,8.20
2022-10-02T07:04:09.506Z,7.18
2022-10-02T07:06:36.142Z,7.93
2022-10-02T07:09:36.351Z,8.57
2022-10-02T07:12:24.586Z,8.90
2022-10-02T07:15:25.106Z,9.00
2022-10-02T07:18:19.673Z,8.77
2022-10-02T07:21:07.663Z,9.18
2022-10-02T07:23:52.072Z,10.15
2022-10-02T07:26:42.143Z,10.77
2022-10-02T07:29:31.017Z,9.07
2022-10-02T07:32:05.573Z,8.63
2022-10-02T07:34:46.590Z,9.88
2022-10-02T07:37:38.906Z,8.85
2022-10-02T07:40:30.128Z,9.25
2022-10-02T07:43:40.742Z,9.85
2022-10-02T07:46:22.527Z,9.23
2022-10-02T07:49:10.617Z,9.40
2022-10-02T07:51:50.084Z,10.70
2022-10-02T07:54:28.469Z,9.13
2022-10-02T07:57:09.669Z,9.93
2022-10-02T07:59:40.415Z,9.63
2022-10-02T08:02:18.745Z,8.90
2022-10-02T08:04:47.108Z,8.93
2022-10-02T08:07:14.116Z,9.20
2022-10-02T08:09:47.126Z,8.95
2022-10-02T08:12:37.844Z,8.85
2022-10-02T08:15:06.084Z,8.70
2022-10-02T08:17:39.611Z,8.60
2022-10-02T08:20:20.635Z,9.40
2022-10-02T08:22:53.421Z,7.95
2022-10-02T08:25:31.300Z,8.20
2022-10-02T08:28:33.358Z,7.68
2022-10-02T08:31:00.360Z,7.40
2022-10-02T08:33:31.170Z,8.05
2022-10-02T08:36:18.190Z,7.47
2022-10-02T08:38:54.983Z,6.97
2022-10-02T08:41:36.818Z,7.63
2022-10-02T08:44:27.602Z,7.78
2022-10-02T08:47:13.711Z,6.85
2022-10-02T08:50:25.403Z,6.75
2022-10-02T08:53:24.940Z,6.18
2022-10-02T08:56:05.204Z,5.80
2022-10-02T08:58:53.278Z,5.35
2022-10-02T09:01:41.372Z,4.82
2022-10-02T09:04:22.862Z,5.22
2022-10-02T09:07:13.507Z,4.72
2022-10-02T09:09:42.867Z,4.25
2022-10-02T09:12:42.558Z,4.50
2022-10-02T09:15:26.048Z,4.45
2022-10-02T09:18:25.330Z,4.45
2022-10-02T09:21:28.343Z,3.75
2022-10-02T09:24:06.840Z,3.95
2022-10-02T09:26:52.650Z,4.35
2022-10-02T09:29:34.922Z,3.28
2022-10-02T09:32:21.670Z,3.95
2022-10-02T09:35:19.607Z,3.05
2022-10-02T09:38:14.213Z,3.28
2022-10-02T09:41:06.798Z,3.70
2022-10-02T09:43:53.879Z,2.45
2022-10-02T09:46:47.199Z,3.15
2022-10-02T09:49:42.205Z,2.63
2022-10-02T09:52:42.665Z,2.55
2022-10-02T09:55:36.656Z,3.25
2022-10-02T09:58:26.219Z,2.70
2022-10-02T10:01:10.071Z,3.20
2022-10-02T10:04:23.427Z,3.28
2022-10-02T10:07:19.024Z,3.20
2022-10-02T10:10:20.723Z,4.00
2022-10-02T10:13:12.341Z,2.95
2022-10-02T10:16:19.765Z,3.00
2022-10-02T10:19:22.262Z,3.40
2022-10-02T10:22:17.290Z,3.03
2022-10-02T10:24:58.777Z,2.90
2022-10-02T10:27:49.096Z,3.08
2022-10-02T10:30:43.468Z,2.40
2022-10-02T10:33:54.502Z,2.65
2022-10-02T10:37:00.942Z,2.30
2022-10-02T10:39:36.045Z,2.80
2022-10-02T10:42:27.147Z,2.70
2022-10-02T10:45:02.775Z,2.50
2022-10-02T10:47:41.120Z,2.45
2022-10-02T10:50:10.437Z,2.10
2022-10-02T10:52:46.733Z,2.60
2022-10-02T10:55:38.089Z,2.35
2022-10-02T10:58:38.107Z,2.28
2022-10-02T11:01:17.427Z,1.63
2022-10-02T11:04:21.471Z,2.65
2022-10-02T11:07:25.177Z,2.17
2022-10-02T11:10:24.170Z,1.98
2022-10-02T11:13:09.743Z,2.67
2022-10-02T11:15:54.840Z,3.20
2022-10-02T11:18:40.488Z,2.35
2022-10-02T11:21:28.750Z,2.30
2022-10-02T11:24:25.438Z,1.75
2022-10-02T11:26:59.416Z,2.08
2022-10-02T11:29:37.690Z,2.10
2022-10-02T11:32:33.461Z,2.10
2022-10-02T11:35:21.210Z,2.40
2022-10-02T11:38:26.819Z,2.50
2022-10-02T11:41:13.126Z,2.00
2022-10-02T11:44:04.836Z,2.38
2022-10-02T11:46:47.065Z,1.52
2022-10-02T11:49:28.800Z,1.50
2022-10-02T11:52:30.115Z,2.10
2022-10-02T11:55:08.578Z,1.83
2022-10-02T11:58:05.009Z,1.95
2022-10-02T12:00:59.292Z,2.13
2022-10-02T12:03:48.190Z,2.25
2022-10-02T12:06:21.306Z,2.03
2022-10-02T12:09:16.719Z,2.10
2022-10-02T12:11:55.541Z,1.67
2022-10-02T12:14:31.054Z,2.00
2022-10-02T12:17:10.940Z,2.30
2022-10-02T12:20:08.443Z,1.85
2022-10-02T12:23:07.712Z,2.10
2022-10-02T12:26:12.388Z,1.90
2022-10-02T12:29:10.178Z,2.20
2022-10-02T12:32:01.423Z,2.13
2022-10-02T12:34:40.361Z,1.92
2022-10-02T12:37:32.931Z,2.17
2022-10-02T12:40:15.629Z,1.95
2022-10-02T12:43:04.316Z,2.03
2022-10-02T12:46:00.884Z,1.65
2022-10-02T12:48:33.216Z,1.92
2022-10-02T12:51:29.474Z,2.15
2022-10-02T12:54:38.759Z,1.98
2022-10-02T12:57:39.249Z,1.92
2022-10-02T13:00:15.343Z,2.08
2022-10-02T13:03:05.490Z,1.90
2022-10-02T13:05:32.045Z,1.50
2022-10-02T13:08:23.688Z,1.80
2022-10-02T13:11:01.616Z,1.63
2022-10-02T13:13:49.574Z,1.70
2022-10-02T13:16:33.783Z,1.50
2022-10-02T13:19:20.135Z,1.48
2022-10-02T13:21:58.999Z,2.00
2022-10-02T13:24:45.342Z,1.40
2022-10-02T13:27:31.657Z,1.70
2022-10-02T13:30:05.750Z,1.85
2022-10-02T13:32:41.192Z,2.00
2022-10-02T13:35:27.774Z,1.40
2022-10-02T13:38:14.461Z,2.03
2022-10-02T13:40:58.465Z,1.63
2022-10-02T13:43:30.999Z,1.60
2022-10-02T13:46:06.608Z,1.65
2022-10-02T13:49:04.177Z,1.83
2022-10-02T13:51:41.119Z,1.67
2022-10-02T13:54:22.557Z,2.05
2022-10-02T13:56:59.945Z,2.20
2022-10-02T13:59:26.344Z,1.90
2022-10-02T14:02:35.170Z,1.50
2022-10-02T14:05:38.964Z,1.90
2022-10-02T14:08:20.769Z,2.50
2022-10-02T14:11:02.374Z,2.35
2022-10-02T14:13:35.962Z,3.17
2022-10-02T14:16:21.542Z,2.50
2022-10-02T14:19:07.732Z,2.03
2022-10-02T14:21:38.386Z,2.00
2022-10-02T14:24:43.478Z,2.03
2022-10-02T14:27:23.393Z,2.03
2022-10-02T14:30:04.151Z,2.40
2022-10-02T14:33:01.350Z,2.10
2022-10-02T14:35:34.416Z,2.00
2022-10-02T14:38:21.391Z,2.00
2022-10-02T14:40:56.134Z,1.73
2022-10-02T14:43:59.658Z,2.20
2022-10-02T14:47:00.918Z,1.67
2022-10-02T14:49:48.610Z,2.13
2022-10-02T14:52:24.101Z,1.85
2022-10-02T14:55:20.515Z,1.65
2022-10-02T14:58:22.949Z,1.60
2022-10-02T15:01:10.698Z,1.83
2022-10-02T15:03:47.066Z,2.00
2022-10-02T15:06:28.752Z,2.22
2022-10-02T15:09:19.596Z,1.83
2022-10-02T15:12:09.162Z,1.60
2022-10-02T15:14:52.909Z,1.92
2022-10-02T15:17:42.570Z,1.48
2022-10-02T15:20:23.662Z,1.98
2022-10-02T15:23:01.832Z,1.63
2022-10-02T15:25:46.990Z,1.77
2022-10-02T15:28:36.930Z,1.50
2022-10-02T15:31:18.905Z,1.60
2022-10-02T15:33:58.533Z,1.60
2022-10-02T15:36:43.733Z,1.80
2022-10-02T15:39:49.141Z,1.70
2022-10-02T15:42:40.661Z,2.00
2022-10-02T15:45:13.640Z,2.00
2022-10-02T15:48:10.137Z,1.98
2022-10-02T15:50:51.715Z,1.80
2022-10-02T15:53:30.970Z,1.75
2022-10-02T15:56:20.617Z,2.30
2022-10-02T15:59:11.570Z,2.08
2022-10-02T16:02:03.450Z,2.10
2022-10-02T16:04:44.878Z,2.00
2022-10-02T16:07:40.850Z,2.08
2022-10-02T16:10:13.512Z,1.70
2022-10-02T16:12:50.070Z,2.00
2022-10-02T16:15:29.494Z,2.38
2022-10-02T16:18:17.472Z,2.22
2022-10-02T16:21:12.554Z,2.03
2022-10-02T16:24:02.251Z,2.00
2022-10-02T16:26:57.619Z,2.42
2022-10-02T16:29:48.515Z,2.15
2022-10-02T16:32:36.563Z,2.25
2022-10-02T16:35:19.122Z,2.92
2022-10-02T16:37:55.888Z,1.95
2022-10-02T16:40:36.328Z,2.22
2022-10-02T16:43:33.177Z,2.20
2022-10-02T16:48:55.960Z,1.80
2022-10-02T16:51:30.755Z,1.58
2022-10-02T16:54:09.309Z,1.98
2022-10-02T16:57:20.355Z,1.98
2022-10-02T17:00:08.247Z,1.75
2022-10-02T17:02:37.335Z,1.70
2022-10-02T17:05:25.763Z,2.00
2022-10-02T17:08:05.116Z,1.80
2022-10-02T17:11:15.907Z,1.85
2022-10-02T17:13:54.610Z,1.42
2022-10-02T17:16:33.142Z,1.75
2022-10-02T17:19:31.510Z,2.45
2022-10-02T17:22:11.287Z,1.42
2022-10-02T17:25:04.635Z,1.80
2022-10-02T17:27:33.788Z,2.00
2022-10-02T17:30:08.323Z,1.95
2022-10-02T17:32:37.600Z,1.75
2022-10-02T17:35:16.059Z,1.98
2022-10-02T17:38:02.302Z,1.75
2022-10-02T17:41:06.423Z,1.98
2022-10-02T17:43:42.040Z,1.90
2022-10-02T17:46:46.713Z,2.10
2022-10-02T17:49:25.219Z,1.85
2022-10-02T17:51:54.538Z,2.20
2022-10-02T17:54:58.671Z,2.33
2022-10-02T17:57:31.403Z,2.03
2022-10-02T18:00:12.135Z,2.28
2022-10-02T18:02:56.968Z,1.58
2022-10-02T18:05:46.329Z,1.88
2022-10-02T18:08:29.763Z,2.05
2022-10-02T18:11:05.791Z,2.70
2022-10-02T18:13:47.770Z,2.03
2022-10-02T18:16:28.746Z,3.20
2022-10-02T18:19:15.000Z,2.97
2022-10-02T18:21:47.605Z,2.88
2022-10-02T18:24:13.912Z,3.08
2022-10-02T18:27:06.186Z,2.20
2022-10-02T18:29:42.146Z,2.33
2022-10-02T18:37:51.903Z,2.08
2022-10-02T18:40:23.812Z,2.63
2022-10-02T18:43:14.687Z,1.92
2022-10-02T18:45:56.402Z,1.70
2022-10-02T18:48:56.490Z,2.78
2022-10-02T18:51:38.477Z,2.50
2022-10-02T18:54:32.950Z,2.83
2022-10-02T18:57:24.692Z,2.70
2022-10-02T19:00:21.868Z,2.20
2022-10-02T19:03:10.354Z,1.83
2022-10-02T19:05:42.290Z,2.85
2022-10-02T19:08:14.443Z,2.20
2022-10-02T19:10:44.936Z,3.00
2022-10-02T19:13:22.761Z,3.00
2022-10-02T19:15:52.507Z,2.50
2022-10-02T19:18:25.633Z,2.92
2022-10-02T19:20:58.048Z,2.60
2022-10-02T19:23:24.395Z,2.58
2022-10-02T19:25:53.483Z,2.67
2022-10-02T19:28:25.514Z,2.63
2022-10-02T19:30:56.236Z,1.92
2022-10-02T19:33:43.475Z,2.35
2022-10-02T19:36:19.413Z,2.35
2022-10-02T19:41:18.287Z,2.13
2022-10-02T19:43:58.715Z,2.72
2022-10-02T19:46:39.230Z,2.90
2022-10-02T19:49:07.938Z,2.90
2022-10-02T19:51:45.455Z,2.30
2022-10-02T19:54:18.443Z,3.03
2022-10-02T19:56:46.037Z,2.35
2022-10-02T19:59:20.147Z,2.78
2022-10-02T20:01:54.885Z,2.45
2022-10-02T20:04:23.987Z,2.47
2022-10-02T20:06:56.716Z,2.88
2022-10-02T20:09:30.980Z,2.55
2022-10-02T20:12:07.041Z,3.20
2022-10-02T20:14:44.177Z,2.42
2022-10-02T20:17:13.404Z,2.15
2022-10-02T20:19:40.145Z,2.38
2022-10-02T20:22:23.934Z,2.90
2022-10-02T20:24:58.563Z,2.60
2022-10-02T20:27:41.074Z,2.08
2022-10-02T20:30:33.047Z,2.25
2022-10-02T20:33:24.411Z,3.35
2022-10-02T20:36:17.650Z,2.30
2022-10-02T20:39:01.284Z,2.72
2022-10-02T20:41:36.315Z,2.42
2022-10-02T20:44:04.522Z,2.80
2022-10-02T20:46:33.883Z,2.58
2022-10-02T20:49:08.623Z,3.38
2022-10-02T20:51:59.068Z,3.42
2022-10-02T20:54:28.545Z,2.90
2022-10-02T20:57:19.636Z,3.13
2022-10-02T20:59:47.877Z,2.63
2022-10-02T21:02:26.878Z,3.08
2022-10-02T21:05:14.663Z,4.45
2022-10-02T21:08:05.412Z,4.30
2022-10-02T21:11:01.606Z,3.58
2022-10-02T21:13:51.075Z,3.45
2022-10-02T21:16:53.623Z,3.30
2022-10-02T21:19:42.310Z,4.00
2022-10-02T21:22:46.310Z,3.58
2022-10-02T21:25:25.296Z,3.65
2022-10-02T21:28:07.000Z,3.88
2022-10-02T21:31:04.076Z,3.38
2022-10-02T21:33:38.655Z,4.00
2022-10-02T21:36:09.588Z,4.20
2022-10-02T21:38:57.828Z,4.53
2022-10-02T21:41:47.186Z,4.20
2022-10-02T21:44:28.648Z,4.07
2022-10-02T21:47:04.945Z,4.18
2022-10-02T21:50:02.215Z,4.30
2022-10-02T21:52:53.497Z,3.60
2022-10-02T21:55:50.886Z,3.80
2022-10-02T21:58:36.114Z,4.65
2022-10-02T22:01:14.962Z,4.40
2022-10-02T22:04:08.005Z,4.43
2022-10-02T22:07:03.599Z,5.15
2022-10-02T22:09:47.382Z,4.30
2022-10-02T22:12:49.400Z,4.50
2022-10-02T22:15:41.980Z,4.32
2022-10-02T22:18:42.617Z,4.93
2022-10-02T22:21:11.667Z,4.85
2022-10-02T22:23:47.758Z,6.35
2022-10-02T22:26:34.882Z,6.40
2022-10-02T22:29:13.290Z,6.95
2022-10-02T22:31:55.067Z,7.35
2022-10-02T22:34:52.224Z,5.72
2022-10-02T22:37:33.816Z,5.57
2022-10-02T22:40:11.270Z,5.68
2022-10-02T22:42:42.344Z,4.55
2022-10-02T22:45:30.621Z,4.97
2022-10-02T22:48:04.223Z,5.15
2022-10-02T22:50:39.828Z,6.40
2022-10-02T22:53:18.350Z,5.88
2022-10-02T22:55:55.272Z,6.32
2022-10-02T22:59:01.832Z,6.13
2022-10-02T23:01:46.200Z,5.72
2022-10-02T23:04:28.770Z,5.60
2022-10-02T23:07:03.617Z,5.30
2022-10-02T23:10:11.217Z,4.90
2022-10-02T23:13:02.269Z,4.82
2022-10-02T23:15:41.668Z,5.05
2022-10-02T23:18:32.871Z,4.47
2022-10-02T23:21:10.538Z,4.80
2022-10-02T23:23:42.823Z,5.00
2022-10-02T23:26:16.921Z,4.45
2022-10-02T23:29:05.371Z,4.35
2022-10-02T23:31:37.543Z,5.22
2022-10-02T23:34:04.185Z,4.70
2022-10-02T23:36:54.615Z,3.72
2022-10-02T23:39:51.434Z,4.63
2022-10-02T23:45:10.320Z,3.75
2022-10-02T23:48:04.626Z,4.85
2022-10-02T23:50:34.032Z,3.92
2022-10-02T23:53:40.192Z,4.30
2022-10-02T23:56:32.022Z,3.50
2022-10-02T23:59:25.694Z,3.67
